sensor_id;sensor_type;location;lat;lon;timestamp;temperature;humidity
16305;DHT22;8261;47.678;-122.174;2023-06-22T00:00:18;21.70;99.90
16305;DHT22;8261;47.678;-122.174;2023-06-22T00:02:51;21.80;99.90
16305;DHT22;8261;47.678;-122.174;2023-06-22T00:05:23;21.80;99.90
16305;DHT22;8261;47.678;-122.174;2023-06-22T00:07:53;21.60;99.90
16305;DHT22;8261;47.678;-122.174;2023-06-22T00:10:25;21.50;99.90
16305;DHT22;8261;47.678;-122.174;2023-06-22T00:12:56;21.40;99.90
16305;DHT22;8261;47.678;-122.174;2023-06-22T00:15:28;21.20;99.90
16305;DHT22;8261;47.678;-122.174;2023-06-22T00:18:01;21.00;99.90
16305;DHT22;8261;47.678;-122.174;2023-06-22T00:20:33;21.10;99.90
16305;DHT22;8261;47.678;-122.174;2023-06-22T00:23:06;21.20;99.90
16305;DHT22;8261;47.678;-122.174;2023-06-22T00:25:38;21.20;99.90
16305;DHT22;8261;47.678;-122.174;2023-06-22T00:28:09;21.40;99.90
16305;DHT22;8261;47.678;-122.174;2023-06-22T00:30:40;21.50;99.90
16305;DHT22;8261;47.678;-122.174;2023-06-22T00:33:13;21.80;99.90
16305;DHT22;8261;47.678;-122.174;2023-06-22T00:35:44;22.10;99.90
16305;DHT22;8261;47.678;-122.174;2023-06-22T00:38:15;22.10;99.90
16305;DHT22;8261;47.678;-122.174;2023-06-22T00:40:46;22.00;99.90
16305;DHT22;8261;47.678;-122.174;2023-06-22T00:43:17;22.20;99.90
16305;DHT22;8261;47.678;-122.174;2023-06-22T00:45:48;22.30;99.90
16305;DHT22;8261;47.678;-122.174;2023-06-22T00:48:21;22.20;99.90
16305;DHT22;8261;47.678;-122.174;2023-06-22T00:50:52;22.40;99.90
16305;DHT22;8261;47.678;-122.174;2023-06-22T00:53:24;22.90;99.90
16305;DHT22;8261;47.678;-122.174;2023-06-22T00:55:55;23.20;99.90
16305;DHT22;8261;47.678;-122.174;2023-06-22T00:58:28;23.00;99.90
16305;DHT22;8261;47.678;-122.174;2023-06-22T01:00:59;23.10;99.90
16305;DHT22;8261;47.678;-122.174;2023-06-22T01:03:32;23.30;99.90
16305;DHT22;8261;47.678;-122.174;2023-06-22T01:06:08;23.60;99.90
16305;DHT22;8261;47.678;-122.174;2023-06-22T01:08:45;23.70;99.90
16305;DHT22;8261;47.678;-122.174;2023-06-22T01:11:22;23.80;99.90
16305;DHT22;8261;47.678;-122.174;2023-06-22T01:14:00;23.50;99.90
16305;DHT22;8261;47.678;-122.174;2023-06-22T01:16:35;23.60;99.90
16305;DHT22;8261;47.678;-122.174;2023-06-22T01:19:24;23.90;99.90
16305;DHT22;8261;47.678;-122.174;2023-06-22T01:21:58;23.90;99.90
16305;DHT22;8261;47.678;-122.174;2023-06-22T01:24:39;24.30;99.90
16305;DHT22;8261;47.678;-122.174;2023-06-22T01:27:22;24.50;99.90
16305;DHT22;8261;47.678;-122.174;2023-06-22T01:29:59;24.70;99.90
16305;DHT22;8261;47.678;-122.174;2023-06-22T01:32:34;24.50;99.90
16305;DHT22;8261;47.678;-122.174;2023-06-22T01:35:07;24.40;99.90
16305;DHT22;8261;47.678;-122.174;2023-06-22T01:37:39;24.40;99.90
16305;DHT22;8261;47.678;-122.174;2023-06-22T01:40:11;24.50;99.90
16305;DHT22;8261;47.678;-122.174;2023-06-22T01:42:42;24.50;99.90
16305;DHT22;8261;47.678;-122.174;2023-06-22T01:45:16;24.40;99.90
16305;DHT22;8261;47.678;-122.174;2023-06-22T01:47:48;24.20;99.90
16305;DHT22;8261;47.678;-122.174;2023-06-22T01:50:19;24.00;99.90
16305;DHT22;8261;47.678;-122.174;2023-06-22T01:52:50;23.90;99.90
16305;DHT22;8261;47.678;-122.174;2023-06-22T01:55:21;23.90;99.90
16305;DHT22;8261;47.678;-122.174;2023-06-22T01:57:53;23.60;99.90
16305;DHT22;8261;47.678;-122.174;2023-06-22T02:00:28;23.80;99.90
16305;DHT22;8261;47.678;-122.174;2023-06-22T02:03:08;23.70;99.90
16305;DHT22;8261;47.678;-122.174;2023-06-22T02:05:46;23.50;99.90
16305;DHT22;8261;47.678;-122.174;2023-06-22T02:08:21;23.20;99.90
16305;DHT22;8261;47.678;-122.174;2023-06-22T02:10:53;22.70;99.90
16305;DHT22;8261;47.678;-122.174;2023-06-22T02:13:26;22.20;99.90
16305;DHT22;8261;47.678;-122.174;2023-06-22T02:16:01;21.80;99.90
16305;DHT22;8261;47.678;-122.174;2023-06-22T02:18:32;21.40;99.90
16305;DHT22;8261;47.678;-122.174;2023-06-22T02:21:04;21.40;99.90
16305;DHT22;8261;47.678;-122.174;2023-06-22T02:23:35;21.20;99.90
16305;DHT22;8261;47.678;-122.174;2023-06-22T02:26:06;21.10;99.90
16305;DHT22;8261;47.678;-122.174;2023-06-22T02:28:37;21.00;99.90
16305;DHT22;8261;47.678;-122.174;2023-06-22T02:31:10;20.80;99.90
16305;DHT22;8261;47.678;-122.174;2023-06-22T02:33:41;20.50;99.90
16305;DHT22;8261;47.678;-122.174;2023-06-22T02:36:14;20.30;99.90
16305;DHT22;8261;47.678;-122.174;2023-06-22T02:38:45;20.20;99.90
16305;DHT22;8261;47.678;-122.174;2023-06-22T02:41:16;19.90;99.90
16305;DHT22;8261;47.678;-122.174;2023-06-22T02:43:48;19.80;99.90
16305;DHT22;8261;47.678;-122.174;2023-06-22T02:46:21;19.60;99.90
16305;DHT22;8261;47.678;-122.174;2023-06-22T02:48:52;19.50;99.90
16305;DHT22;8261;47.678;-122.174;2023-06-22T02:51:23;19.40;99.90
16305;DHT22;8261;47.678;-122.174;2023-06-22T02:53:53;19.30;99.90
16305;DHT22;8261;47.678;-122.174;2023-06-22T02:56:26;19.30;99.90
16305;DHT22;8261;47.678;-122.174;2023-06-22T02:58:58;19.10;99.90
16305;DHT22;8261;47.678;-122.174;2023-06-22T03:01:33;19.10;99.90
16305;DHT22;8261;47.678;-122.174;2023-06-22T03:04:09;19.00;99.90
16305;DHT22;8261;47.678;-122.174;2023-06-22T03:06:40;18.90;99.90
16305;DHT22;8261;47.678;-122.174;2023-06-22T03:09:11;18.80;99.90
16305;DHT22;8261;47.678;-122.174;2023-06-22T03:11:42;18.80;99.90
16305;DHT22;8261;47.678;-122.174;2023-06-22T03:14:13;18.70;99.90
16305;DHT22;8261;47.678;-122.174;2023-06-22T03:16:45;18.50;99.90
16305;DHT22;8261;47.678;-122.174;2023-06-22T03:19:16;18.40;99.90
16305;DHT22;8261;47.678;-122.174;2023-06-22T03:21:48;18.30;99.90
16305;DHT22;8261;47.678;-122.174;2023-06-22T03:24:18;18.20;99.90
16305;DHT22;8261;47.678;-122.174;2023-06-22T03:26:50;18.10;99.90
16305;DHT22;8261;47.678;-122.174;2023-06-22T03:29:20;18.00;99.90
16305;DHT22;8261;47.678;-122.174;2023-06-22T03:31:54;17.80;99.90
16305;DHT22;8261;47.678;-122.174;2023-06-22T03:34:25;17.70;99.90
16305;DHT22;8261;47.678;-122.174;2023-06-22T03:36:56;17.70;99.90
16305;DHT22;8261;47.678;-122.174;2023-06-22T03:39:26;17.50;99.90
16305;DHT22;8261;47.678;-122.174;2023-06-22T03:41:58;17.40;99.90
16305;DHT22;8261;47.678;-122.174;2023-06-22T03:44:28;17.30;99.90
16305;DHT22;8261;47.678;-122.174;2023-06-22T03:47:01;17.20;99.90
16305;DHT22;8261;47.678;-122.174;2023-06-22T03:49:32;17.20;99.90
16305;DHT22;8261;47.678;-122.174;2023-06-22T03:52:04;17.10;99.90
16305;DHT22;8261;47.678;-122.174;2023-06-22T03:54:35;17.00;99.90
16305;DHT22;8261;47.678;-122.174;2023-06-22T03:57:06;16.90;99.90
16305;DHT22;8261;47.678;-122.174;2023-06-22T03:59:37;16.80;99.90
16305;DHT22;8261;47.678;-122.174;2023-06-22T04:02:09;16.70;99.90
16305;DHT22;8261;47.678;-122.174;2023-06-22T04:04:40;16.60;99.90
16305;DHT22;8261;47.678;-122.174;2023-06-22T04:07:11;16.60;99.90
16305;DHT22;8261;47.678;-122.174;2023-06-22T04:09:42;16.50;99.90
16305;DHT22;8261;47.678;-122.174;2023-06-22T04:12:13;16.50;99.90
16305;DHT22;8261;47.678;-122.174;2023-06-22T04:14:44;16.40;99.90
16305;DHT22;8261;47.678;-122.174;2023-06-22T04:17:16;16.30;99.90
16305;DHT22;8261;47.678;-122.174;2023-06-22T04:19:47;16.30;99.90
16305;DHT22;8261;47.678;-122.174;2023-06-22T04:22:18;16.20;99.90
16305;DHT22;8261;47.678;-122.174;2023-06-22T04:24:50;16.10;99.90
16305;DHT22;8261;47.678;-122.174;2023-06-22T04:27:21;16.00;99.90
16305;DHT22;8261;47.678;-122.174;2023-06-22T04:29:52;16.00;99.90
16305;DHT22;8261;47.678;-122.174;2023-06-22T04:32:25;15.90;99.90
16305;DHT22;8261;47.678;-122.174;2023-06-22T04:34:56;15.80;99.90
16305;DHT22;8261;47.678;-122.174;2023-06-22T04:37:28;15.80;99.90
16305;DHT22;8261;47.678;-122.174;2023-06-22T04:40:00;15.70;99.90
16305;DHT22;8261;47.678;-122.174;2023-06-22T04:42:34;15.70;99.90
16305;DHT22;8261;47.678;-122.174;2023-06-22T04:45:06;15.60;99.90
16305;DHT22;8261;47.678;-122.174;2023-06-22T04:47:40;15.60;99.90
16305;DHT22;8261;47.678;-122.174;2023-06-22T04:50:11;15.50;99.90
16305;DHT22;8261;47.678;-122.174;2023-06-22T04:52:43;15.40;99.90
16305;DHT22;8261;47.678;-122.174;2023-06-22T04:55:15;15.30;99.90
16305;DHT22;8261;47.678;-122.174;2023-06-22T04:57:49;15.30;99.90
16305;DHT22;8261;47.678;-122.174;2023-06-22T05:00:20;15.20;99.90
16305;DHT22;8261;47.678;-122.174;2023-06-22T05:02:53;15.20;99.90
16305;DHT22;8261;47.678;-122.174;2023-06-22T05:05:45;15.10;99.90
16305;DHT22;8261;47.678;-122.174;2023-06-22T05:08:17;15.10;99.90
16305;DHT22;8261;47.678;-122.174;2023-06-22T05:10:48;15.10;99.90
16305;DHT22;8261;47.678;-122.174;2023-06-22T05:13:32;15.00;99.90
16305;DHT22;8261;47.678;-122.174;2023-06-22T05:16:03;15.00;99.90
16305;DHT22;8261;47.678;-122.174;2023-06-22T05:18:36;14.90;99.90
16305;DHT22;8261;47.678;-122.174;2023-06-22T05:21:08;14.90;99.90
16305;DHT22;8261;47.678;-122.174;2023-06-22T05:23:40;14.80;99.90
16305;DHT22;8261;47.678;-122.174;2023-06-22T05:26:10;14.80;99.90
16305;DHT22;8261;47.678;-122.174;2023-06-22T05:28:41;14.80;99.90
16305;DHT22;8261;47.678;-122.174;2023-06-22T05:31:14;14.80;99.90
16305;DHT22;8261;47.678;-122.174;2023-06-22T05:33:52;14.70;99.90
16305;DHT22;8261;47.678;-122.174;2023-06-22T05:36:23;14.70;99.90
16305;DHT22;8261;47.678;-122.174;2023-06-22T05:38:57;14.60;99.90
16305;DHT22;8261;47.678;-122.174;2023-06-22T05:41:28;14.60;99.90
16305;DHT22;8261;47.678;-122.174;2023-06-22T05:43:59;14.50;99.90
16305;DHT22;8261;47.678;-122.174;2023-06-22T05:46:31;14.50;99.90
16305;DHT22;8261;47.678;-122.174;2023-06-22T05:49:05;14.40;99.90
16305;DHT22;8261;47.678;-122.174;2023-06-22T05:51:36;14.40;99.90
16305;DHT22;8261;47.678;-122.174;2023-06-22T05:54:08;14.40;99.90
16305;DHT22;8261;47.678;-122.174;2023-06-22T05:56:39;14.40;99.90
16305;DHT22;8261;47.678;-122.174;2023-06-22T05:59:10;14.30;99.90
16305;DHT22;8261;47.678;-122.174;2023-06-22T06:01:41;14.30;99.90
16305;DHT22;8261;47.678;-122.174;2023-06-22T06:04:16;14.20;99.90
16305;DHT22;8261;47.678;-122.174;2023-06-22T06:06:47;14.10;99.90
16305;DHT22;8261;47.678;-122.174;2023-06-22T06:09:18;14.10;99.90
16305;DHT22;8261;47.678;-122.174;2023-06-22T06:11:50;14.10;99.90
16305;DHT22;8261;47.678;-122.174;2023-06-22T06:14:21;14.00;99.90
16305;DHT22;8261;47.678;-122.174;2023-06-22T06:16:53;14.00;99.90
16305;DHT22;8261;47.678;-122.174;2023-06-22T06:19:26;13.90;99.90
16305;DHT22;8261;47.678;-122.174;2023-06-22T06:21:57;13.90;99.90
16305;DHT22;8261;47.678;-122.174;2023-06-22T06:24:29;13.80;99.90
16305;DHT22;8261;47.678;-122.174;2023-06-22T06:27:00;13.80;99.90
16305;DHT22;8261;47.678;-122.174;2023-06-22T06:29:33;13.70;99.90
16305;DHT22;8261;47.678;-122.174;2023-06-22T06:32:05;13.70;99.90
16305;DHT22;8261;47.678;-122.174;2023-06-22T06:34:39;13.60;99.90
16305;DHT22;8261;47.678;-122.174;2023-06-22T06:37:11;13.50;99.90
16305;DHT22;8261;47.678;-122.174;2023-06-22T06:39:43;13.50;99.90
16305;DHT22;8261;47.678;-122.174;2023-06-22T06:42:14;13.50;99.90
16305;DHT22;8261;47.678;-122.174;2023-06-22T06:44:45;13.40;99.90
16305;DHT22;8261;47.678;-122.174;2023-06-22T06:47:17;13.40;99.90
16305;DHT22;8261;47.678;-122.174;2023-06-22T06:49:50;13.40;99.90
16305;DHT22;8261;47.678;-122.174;2023-06-22T06:52:24;13.30;99.90
16305;DHT22;8261;47.678;-122.174;2023-06-22T06:54:56;13.30;99.90
16305;DHT22;8261;47.678;-122.174;2023-06-22T06:57:27;13.30;99.90
16305;DHT22;8261;47.678;-122.174;2023-06-22T06:59:59;13.30;99.90
16305;DHT22;8261;47.678;-122.174;2023-06-22T07:02:30;13.20;99.90
16305;DHT22;8261;47.678;-122.174;2023-06-22T07:05:04;13.20;99.90
16305;DHT22;8261;47.678;-122.174;2023-06-22T07:07:35;13.10;99.90
16305;DHT22;8261;47.678;-122.174;2023-06-22T07:10:07;13.10;99.90
16305;DHT22;8261;47.678;-122.174;2023-06-22T07:12:39;13.00;99.90
16305;DHT22;8261;47.678;-122.174;2023-06-22T07:15:10;13.00;99.90
16305;DHT22;8261;47.678;-122.174;2023-06-22T07:17:41;13.00;99.90
16305;DHT22;8261;47.678;-122.174;2023-06-22T07:20:15;13.00;99.90
16305;DHT22;8261;47.678;-122.174;2023-06-22T07:22:48;13.00;99.90
16305;DHT22;8261;47.678;-122.174;2023-06-22T07:25:20;13.00;99.90
16305;DHT22;8261;47.678;-122.174;2023-06-22T07:27:59;12.90;99.90
16305;DHT22;8261;47.678;-122.174;2023-06-22T07:30:31;12.90;99.90
16305;DHT22;8261;47.678;-122.174;2023-06-22T07:33:02;13.00;99.90
16305;DHT22;8261;47.678;-122.174;2023-06-22T07:35:39;13.00;99.90
16305;DHT22;8261;47.678;-122.174;2023-06-22T07:38:10;13.00;99.90
16305;DHT22;8261;47.678;-122.174;2023-06-22T07:40:41;13.00;99.90
16305;DHT22;8261;47.678;-122.174;2023-06-22T07:43:12;13.00;99.90
16305;DHT22;8261;47.678;-122.174;2023-06-22T07:45:48;12.90;99.90
16305;DHT22;8261;47.678;-122.174;2023-06-22T07:48:22;12.90;99.90
16305;DHT22;8261;47.678;-122.174;2023-06-22T07:50:55;12.90;99.90
16305;DHT22;8261;47.678;-122.174;2023-06-22T07:53:26;12.90;99.90
16305;DHT22;8261;47.678;-122.174;2023-06-22T07:55:57;12.90;99.90
16305;DHT22;8261;47.678;-122.174;2023-06-22T07:58:28;12.90;99.90
16305;DHT22;8261;47.678;-122.174;2023-06-22T08:00:59;12.80;99.90
16305;DHT22;8261;47.678;-122.174;2023-06-22T08:03:31;12.80;99.90
16305;DHT22;8261;47.678;-122.174;2023-06-22T08:06:04;12.70;99.90
16305;DHT22;8261;47.678;-122.174;2023-06-22T08:08:37;12.70;99.90
16305;DHT22;8261;47.678;-122.174;2023-06-22T08:11:08;12.60;99.90
16305;DHT22;8261;47.678;-122.174;2023-06-22T08:13:39;12.50;99.90
16305;DHT22;8261;47.678;-122.174;2023-06-22T08:16:10;12.50;99.90
16305;DHT22;8261;47.678;-122.174;2023-06-22T08:18:41;12.40;99.90
16305;DHT22;8261;47.678;-122.174;2023-06-22T08:21:15;12.30;99.90
16305;DHT22;8261;47.678;-122.174;2023-06-22T08:23:47;12.40;99.90
16305;DHT22;8261;47.678;-122.174;2023-06-22T08:26:19;12.40;99.90
16305;DHT22;8261;47.678;-122.174;2023-06-22T08:28:51;12.40;99.90
16305;DHT22;8261;47.678;-122.174;2023-06-22T08:31:23;12.30;99.90
16305;DHT22;8261;47.678;-122.174;2023-06-22T08:33:54;12.30;99.90
16305;DHT22;8261;47.678;-122.174;2023-06-22T08:36:27;12.30;99.90
16305;DHT22;8261;47.678;-122.174;2023-06-22T08:39:03;12.30;99.90
16305;DHT22;8261;47.678;-122.174;2023-06-22T08:41:35;12.30;99.90
16305;DHT22;8261;47.678;-122.174;2023-06-22T08:44:06;12.20;99.90
16305;DHT22;8261;47.678;-122.174;2023-06-22T08:46:37;12.20;99.90
16305;DHT22;8261;47.678;-122.174;2023-06-22T08:49:09;12.10;99.90
16305;DHT22;8261;47.678;-122.174;2023-06-22T08:51:42;12.10;99.90
16305;DHT22;8261;47.678;-122.174;2023-06-22T08:54:16;12.10;99.90
16305;DHT22;8261;47.678;-122.174;2023-06-22T08:56:46;12.10;99.90
16305;DHT22;8261;47.678;-122.174;2023-06-22T08:59:18;12.10;99.90
16305;DHT22;8261;47.678;-122.174;2023-06-22T09:01:49;12.00;99.90
16305;DHT22;8261;47.678;-122.174;2023-06-22T09:04:20;12.00;99.90
16305;DHT22;8261;47.678;-122.174;2023-06-22T09:06:54;12.00;99.90
16305;DHT22;8261;47.678;-122.174;2023-06-22T09:09:26;12.00;99.90
16305;DHT22;8261;47.678;-122.174;2023-06-22T09:11:57;11.90;99.90
16305;DHT22;8261;47.678;-122.174;2023-06-22T09:14:28;11.90;99.90
16305;DHT22;8261;47.678;-122.174;2023-06-22T09:17:00;12.00;99.90
16305;DHT22;8261;47.678;-122.174;2023-06-22T09:19:31;11.90;99.90
16305;DHT22;8261;47.678;-122.174;2023-06-22T09:22:06;11.90;99.90
16305;DHT22;8261;47.678;-122.174;2023-06-22T09:24:38;11.90;99.90
16305;DHT22;8261;47.678;-122.174;2023-06-22T09:27:09;11.90;99.90
16305;DHT22;8261;47.678;-122.174;2023-06-22T09:29:41;11.90;99.90
16305;DHT22;8261;47.678;-122.174;2023-06-22T09:32:14;11.90;99.90
16305;DHT22;8261;47.678;-122.174;2023-06-22T09:34:46;11.70;99.90
16305;DHT22;8261;47.678;-122.174;2023-06-22T09:37:19;11.70;99.90
16305;DHT22;8261;47.678;-122.174;2023-06-22T09:39:51;11.70;99.90
16305;DHT22;8261;47.678;-122.174;2023-06-22T09:42:22;11.60;99.90
16305;DHT22;8261;47.678;-122.174;2023-06-22T09:44:54;11.60;99.90
16305;DHT22;8261;47.678;-122.174;2023-06-22T09:47:26;11.60;99.90
16305;DHT22;8261;47.678;-122.174;2023-06-22T09:49:58;11.60;99.90
16305;DHT22;8261;47.678;-122.174;2023-06-22T09:52:32;11.50;99.90
16305;DHT22;8261;47.678;-122.174;2023-06-22T09:55:07;11.50;99.90
16305;DHT22;8261;47.678;-122.174;2023-06-22T09:57:39;11.50;99.90
16305;DHT22;8261;47.678;-122.174;2023-06-22T10:00:12;11.50;99.90
16305;DHT22;8261;47.678;-122.174;2023-06-22T10:02:46;11.50;99.90
16305;DHT22;8261;47.678;-122.174;2023-06-22T10:05:18;11.40;99.90
16305;DHT22;8261;47.678;-122.174;2023-06-22T10:07:51;11.40;99.90
16305;DHT22;8261;47.678;-122.174;2023-06-22T10:10:23;11.40;99.90
16305;DHT22;8261;47.678;-122.174;2023-06-22T10:12:56;11.40;99.90
16305;DHT22;8261;47.678;-122.174;2023-06-22T10:15:28;11.40;99.90
16305;DHT22;8261;47.678;-122.174;2023-06-22T10:18:00;11.40;99.90
16305;DHT22;8261;47.678;-122.174;2023-06-22T10:20:31;11.40;99.90
16305;DHT22;8261;47.678;-122.174;2023-06-22T10:23:04;11.40;99.90
16305;DHT22;8261;47.678;-122.174;2023-06-22T10:25:36;11.40;99.90
16305;DHT22;8261;47.678;-122.174;2023-06-22T10:28:07;11.40;99.90
16305;DHT22;8261;47.678;-122.174;2023-06-22T10:30:39;11.40;99.90
16305;DHT22;8261;47.678;-122.174;2023-06-22T10:33:13;11.40;99.90
16305;DHT22;8261;47.678;-122.174;2023-06-22T10:35:44;11.40;99.90
16305;DHT22;8261;47.678;-122.174;2023-06-22T10:38:18;11.40;99.90
16305;DHT22;8261;47.678;-122.174;2023-06-22T10:40:50;11.40;99.90
16305;DHT22;8261;47.678;-122.174;2023-06-22T10:43:22;11.40;99.90
16305;DHT22;8261;47.678;-122.174;2023-06-22T10:45:54;11.40;99.90
16305;DHT22;8261;47.678;-122.174;2023-06-22T10:48:26;11.30;99.90
16305;DHT22;8261;47.678;-122.174;2023-06-22T10:50:57;11.30;99.90
16305;DHT22;8261;47.678;-122.174;2023-06-22T10:53:29;11.30;99.90
16305;DHT22;8261;47.678;-122.174;2023-06-22T10:56:01;11.30;99.90
16305;DHT22;8261;47.678;-122.174;2023-06-22T10:58:32;11.30;99.90
16305;DHT22;8261;47.678;-122.174;2023-06-22T11:01:03;11.20;99.90
16305;DHT22;8261;47.678;-122.174;2023-06-22T11:03:41;11.20;99.90
16305;DHT22;8261;47.678;-122.174;2023-06-22T11:06:13;11.20;99.90
16305;DHT22;8261;47.678;-122.174;2023-06-22T11:08:47;11.10;99.90
16305;DHT22;8261;47.678;-122.174;2023-06-22T11:11:33;11.10;99.90
16305;DHT22;8261;47.678;-122.174;2023-06-22T11:14:04;11.10;99.90
16305;DHT22;8261;47.678;-122.174;2023-06-22T11:16:36;11.10;99.90
16305;DHT22;8261;47.678;-122.174;2023-06-22T11:19:07;11.00;99.90
16305;DHT22;8261;47.678;-122.174;2023-06-22T11:21:38;11.00;99.90
16305;DHT22;8261;47.678;-122.174;2023-06-22T11:24:11;11.00;99.90
16305;DHT22;8261;47.678;-122.174;2023-06-22T11:26:43;11.00;99.90
16305;DHT22;8261;47.678;-122.174;2023-06-22T11:29:14;11.00;99.90
16305;DHT22;8261;47.678;-122.174;2023-06-22T11:32:04;10.90;99.90
16305;DHT22;8261;47.678;-122.174;2023-06-22T11:34:39;10.90;99.90
16305;DHT22;8261;47.678;-122.174;2023-06-22T11:37:11;10.90;99.90
16305;DHT22;8261;47.678;-122.174;2023-06-22T11:39:45;10.80;99.90
16305;DHT22;8261;47.678;-122.174;2023-06-22T11:42:19;10.80;99.90
16305;DHT22;8261;47.678;-122.174;2023-06-22T11:44:52;10.80;99.90
16305;DHT22;8261;47.678;-122.174;2023-06-22T11:47:25;10.80;99.90
16305;DHT22;8261;47.678;-122.174;2023-06-22T11:49:58;10.80;99.90
16305;DHT22;8261;47.678;-122.174;2023-06-22T11:52:30;10.80;99.90
16305;DHT22;8261;47.678;-122.174;2023-06-22T11:55:04;10.80;99.90
16305;DHT22;8261;47.678;-122.174;2023-06-22T11:57:37;10.80;99.90
16305;DHT22;8261;47.678;-122.174;2023-06-22T12:00:09;10.70;99.90
16305;DHT22;8261;47.678;-122.174;2023-06-22T12:02:46;10.70;99.90
16305;DHT22;8261;47.678;-122.174;2023-06-22T12:05:19;10.70;99.90
16305;DHT22;8261;47.678;-122.174;2023-06-22T12:07:53;10.70;99.90
16305;DHT22;8261;47.678;-122.174;2023-06-22T12:10:26;10.70;99.90
16305;DHT22;8261;47.678;-122.174;2023-06-22T12:12:59;10.70;99.90
16305;DHT22;8261;47.678;-122.174;2023-06-22T12:15:30;10.70;99.90
16305;DHT22;8261;47.678;-122.174;2023-06-22T12:18:02;10.60;99.90
16305;DHT22;8261;47.678;-122.174;2023-06-22T12:20:34;10.60;99.90
16305;DHT22;8261;47.678;-122.174;2023-06-22T12:23:04;10.60;99.90
16305;DHT22;8261;47.678;-122.174;2023-06-22T12:25:38;10.60;99.90
16305;DHT22;8261;47.678;-122.174;2023-06-22T12:28:10;10.60;99.90
16305;DHT22;8261;47.678;-122.174;2023-06-22T12:30:41;10.60;99.90
16305;DHT22;8261;47.678;-122.174;2023-06-22T12:33:12;10.60;99.90
16305;DHT22;8261;47.678;-122.174;2023-06-22T12:35:44;10.60;99.90
16305;DHT22;8261;47.678;-122.174;2023-06-22T12:38:17;10.60;99.90
16305;DHT22;8261;47.678;-122.174;2023-06-22T12:40:51;10.60;99.90
16305;DHT22;8261;47.678;-122.174;2023-06-22T12:43:22;10.60;99.90
16305;DHT22;8261;47.678;-122.174;2023-06-22T12:45:54;10.60;99.90
16305;DHT22;8261;47.678;-122.174;2023-06-22T12:48:26;10.70;99.90
16305;DHT22;8261;47.678;-122.174;2023-06-22T12:50:59;10.70;99.90
16305;DHT22;8261;47.678;-122.174;2023-06-22T12:53:30;10.70;99.90
16305;DHT22;8261;47.678;-122.174;2023-06-22T12:56:04;10.70;99.90
16305;DHT22;8261;47.678;-122.174;2023-06-22T12:58:36;10.70;99.90
16305;DHT22;8261;47.678;-122.174;2023-06-22T13:01:07;10.70;99.90
16305;DHT22;8261;47.678;-122.174;2023-06-22T13:03:39;10.70;99.90
16305;DHT22;8261;47.678;-122.174;2023-06-22T13:06:11;10.80;99.90
16305;DHT22;8261;47.678;-122.174;2023-06-22T13:08:42;10.80;99.90
16305;DHT22;8261;47.678;-122.174;2023-06-22T13:11:18;10.80;99.90
16305;DHT22;8261;47.678;-122.174;2023-06-22T13:13:50;10.80;99.90
16305;DHT22;8261;47.678;-122.174;2023-06-22T13:16:20;10.90;99.90
16305;DHT22;8261;47.678;-122.174;2023-06-22T13:18:52;10.90;99.90
16305;DHT22;8261;47.678;-122.174;2023-06-22T13:21:23;11.00;99.90
16305;DHT22;8261;47.678;-122.174;2023-06-22T13:23:55;11.00;99.90
16305;DHT22;8261;47.678;-122.174;2023-06-22T13:26:29;11.10;99.90
16305;DHT22;8261;47.678;-122.174;2023-06-22T13:29:00;11.10;99.90
16305;DHT22;8261;47.678;-122.174;2023-06-22T13:31:32;11.10;99.90
16305;DHT22;8261;47.678;-122.174;2023-06-22T13:34:04;11.20;99.90
16305;DHT22;8261;47.678;-122.174;2023-06-22T13:36:35;11.20;99.90
16305;DHT22;8261;47.678;-122.174;2023-06-22T13:39:07;11.20;99.90
16305;DHT22;8261;47.678;-122.174;2023-06-22T13:41:41;11.30;99.90
16305;DHT22;8261;47.678;-122.174;2023-06-22T13:44:12;11.40;99.90
16305;DHT22;8261;47.678;-122.174;2023-06-22T13:46:44;11.40;99.90
16305;DHT22;8261;47.678;-122.174;2023-06-22T13:49:16;11.50;99.90
16305;DHT22;8261;47.678;-122.174;2023-06-22T13:51:47;11.50;99.90
16305;DHT22;8261;47.678;-122.174;2023-06-22T13:54:19;11.50;99.90
16305;DHT22;8261;47.678;-122.174;2023-06-22T13:56:55;11.60;99.90
16305;DHT22;8261;47.678;-122.174;2023-06-22T13:59:26;11.70;99.90
16305;DHT22;8261;47.678;-122.174;2023-06-22T14:01:58;11.70;99.90
16305;DHT22;8261;47.678;-122.174;2023-06-22T14:04:29;11.80;99.90
16305;DHT22;8261;47.678;-122.174;2023-06-22T14:07:00;11.80;99.90
16305;DHT22;8261;47.678;-122.174;2023-06-22T14:09:32;11.80;99.90
16305;DHT22;8261;47.678;-122.174;2023-06-22T14:12:07;11.80;99.90
16305;DHT22;8261;47.678;-122.174;2023-06-22T14:14:39;11.90;99.90
16305;DHT22;8261;47.678;-122.174;2023-06-22T14:17:10;11.90;99.90
16305;DHT22;8261;47.678;-122.174;2023-06-22T14:19:42;12.00;99.90
16305;DHT22;8261;47.678;-122.174;2023-06-22T14:22:14;12.00;99.90
16305;DHT22;8261;47.678;-122.174;2023-06-22T14:24:45;12.10;99.90
16305;DHT22;8261;47.678;-122.174;2023-06-22T14:27:19;12.00;99.90
16305;DHT22;8261;47.678;-122.174;2023-06-22T14:29:52;12.10;99.90
16305;DHT22;8261;47.678;-122.174;2023-06-22T14:32:23;12.10;99.90
16305;DHT22;8261;47.678;-122.174;2023-06-22T14:34:54;12.10;99.90
16305;DHT22;8261;47.678;-122.174;2023-06-22T14:37:26;12.10;99.90
16305;DHT22;8261;47.678;-122.174;2023-06-22T14:39:58;12.10;99.90
16305;DHT22;8261;47.678;-122.174;2023-06-22T14:42:31;12.10;99.90
16305;DHT22;8261;47.678;-122.174;2023-06-22T14:45:03;12.10;99.90
16305;DHT22;8261;47.678;-122.174;2023-06-22T14:47:35;12.30;99.90
16305;DHT22;8261;47.678;-122.174;2023-06-22T14:50:07;12.70;99.90
16305;DHT22;8261;47.678;-122.174;2023-06-22T14:52:39;13.20;99.90
16305;DHT22;8261;47.678;-122.174;2023-06-22T14:55:11;13.80;99.90
16305;DHT22;8261;47.678;-122.174;2023-06-22T14:57:45;14.50;99.90
16305;DHT22;8261;47.678;-122.174;2023-06-22T15:00:17;15.10;99.90
16305;DHT22;8261;47.678;-122.174;2023-06-22T15:02:48;15.40;99.90
16305;DHT22;8261;47.678;-122.174;2023-06-22T15:05:20;15.70;99.90
16305;DHT22;8261;47.678;-122.174;2023-06-22T15:07:52;16.00;99.90
16305;DHT22;8261;47.678;-122.174;2023-06-22T15:10:23;16.10;99.90
16305;DHT22;8261;47.678;-122.174;2023-06-22T15:12:56;16.10;99.90
16305;DHT22;8261;47.678;-122.174;2023-06-22T15:15:27;16.50;99.90
16305;DHT22;8261;47.678;-122.174;2023-06-22T15:17:58;16.80;99.90
16305;DHT22;8261;47.678;-122.174;2023-06-22T15:20:28;17.00;99.90
16305;DHT22;8261;47.678;-122.174;2023-06-22T15:23:00;17.00;99.90
16305;DHT22;8261;47.678;-122.174;2023-06-22T15:25:32;17.30;99.90
16305;DHT22;8261;47.678;-122.174;2023-06-22T15:28:06;17.30;99.90
16305;DHT22;8261;47.678;-122.174;2023-06-22T15:30:38;17.30;99.90
16305;DHT22;8261;47.678;-122.174;2023-06-22T15:33:08;17.10;99.90